Strona główna
METAR-TAF:

METAR-TAF

Lotnisko :

Port lotniczy Londrina

Londrina, Parana, Brazylia

Szerokość geograficzna: 23-20S, Długość geograficzna: 051-08W, wysokość: 569 m

Aktualna obserwacja pogody

Raport powstał 1 godzina i 13 minut temu, godzina 17:00 UTC
Wiatr 7 kt od wschód
Temperatura 23°C
Wilgotność 57%
Ciśnienie 1020 hPa
Widzialność 10 km lub więcej
Brak chmur poniżej 1500 m i brak chmur cumulonimbus

METAR: SBLO 161700Z 09007KT CAVOK 23/14 Q1020

czas: 15:13 (18:13 UTC)

Prognoza

Raport powstał 3 godziny i 13 minut temu, godzina 15:00 UTC
Prognoza ważna od 16 godzina 18 UTC do 17 godzina 06 UTC
Wiatr 10 kt od południowy wschód
Widzialność 10 km lub więcej
Brak chmur poniżej 1500 m i brak chmur cumulonimbus
Stopniowe zmiany
od 16 godzina 21 UTC do 16 godzina 23 UTC
Wiatr 5 kt od wschód

TAF: SBLO 161500Z 1618/1706 14010KT CAVOK TX25/1618Z TN18/1706Z BECMG 1621/1623 10005KT RMK PER

Obserwacja i prognoza pogody dla ponad 4000 lotnisk (raport METAR i TAF).

Dostępne stacje oznaczono żółtymi i czerwonymi punktami na mapie.

Najedź kursorem aby zobaczyć nazwę stacji.

Kliknij aby zobaczyć obserwacje i prognozy pogody.

Aby zmienić mapę: kliknij na zielony przycisk z czarnym krzyżykiem, aby powiększyć; na zielony przycisk z myślnikiem, aby pomniejszyć; na zielone strzałki, aby przejść do map sąsiednich.


METAR-TAF: